Time;durP1;ratioP1;P1;durP2;ratioP2;P2;SDS_P1;SDS_P2;PMS_P1;PMS_P2;Temp;Humidity;BMP_temperature;BMP_pressure;BME280_temperature;BME280_humidity;BME280_pressure;Samples;Min_cycle;Max_cycle;Signal;HPM_P1;HPM_P2
2023/12/19 00:01:56;;;;;;;1999.90;999.90;;;8.20;99.90;;;;;;5084847;28;20257;-82
2023/12/19 00:04:22;;;;;;;1999.90;999.90;;;8.20;99.90;;;;;;5083950;28;20169;-83
2023/12/19 00:06:47;;;;;;;1999.90;999.90;;;8.20;99.90;;;;;;5074178;28;20073;-83
2023/12/19 00:09:15;;;;;;;1999.90;999.90;;;8.20;99.90;;;;;;5071073;28;20054;-84
2023/12/19 00:11:41;;;;;;;1999.90;999.90;;;8.30;99.90;;;;;;5071633;28;20540;-83
2023/12/19 00:14:07;;;;;;;1999.90;999.90;;;8.30;99.90;;;;;;5086333;28;20044;-84
2023/12/19 00:16:33;;;;;;;1999.90;999.90;;;8.30;99.90;;;;;;5080847;28;20512;-83
2023/12/19 00:18:59;;;;;;;1999.90;999.90;;;8.30;99.90;;;;;;5070310;28;20070;-82
2023/12/19 00:21:25;;;;;;;1999.90;999.90;;;8.40;99.90;;;;;;5069993;28;20186;-83
2023/12/19 00:23:50;;;;;;;1999.90;999.90;;;8.40;99.90;;;;;;5065492;28;20522;-83
2023/12/19 00:26:16;;;;;;;1999.90;999.90;;;8.40;99.90;;;;;;5069230;28;20032;-83
2023/12/19 00:28:43;;;;;;;1999.90;999.90;;;8.40;99.90;;;;;;5109219;28;20476;-83
2023/12/19 00:31:17;;;;;;;1999.90;999.90;;;8.40;99.90;;;;;;5058041;28;20048;-82
2023/12/19 00:33:42;;;;;;;1999.90;999.90;;;8.40;99.90;;;;;;5082819;28;20396;-82
2023/12/19 00:36:08;;;;;;;1999.90;999.90;;;8.40;99.90;;;;;;5104301;28;20043;-83
2023/12/19 00:38:33;;;;;;;1999.90;999.90;;;8.40;99.90;;;;;;5059332;28;20134;-83
2023/12/19 00:40:59;;;;;;;1999.90;999.90;;;8.30;99.90;;;;;;5067526;28;20118;-83
2023/12/19 00:43:24;;;;;;;1999.90;999.90;;;8.30;99.90;;;;;;5076672;28;20036;-83
2023/12/19 00:45:50;;;;;;;1999.90;999.90;;;8.40;99.90;;;;;;5071102;28;20036;-83
2023/12/19 00:48:16;;;;;;;1999.90;999.90;;;8.40;99.90;;;;;;5074920;28;20416;-83
2023/12/19 00:50:41;;;;;;;1999.90;999.90;;;8.40;99.90;;;;;;5085586;28;20032;-83
2023/12/19 00:53:07;;;;;;;1999.90;999.90;;;8.40;99.90;;;;;;5084387;28;20046;-83
2023/12/19 00:55:32;;;;;;;1999.90;999.90;;;8.40;99.90;;;;;;5076560;28;20044;-83
2023/12/19 00:57:58;;;;;;;1999.90;999.90;;;8.40;99.90;;;;;;5085466;28;20058;-84
2023/12/19 01:00:24;;;;;;;1999.90;999.90;;;8.40;99.90;;;;;;5081265;28;20036;-83
2023/12/19 01:02:49;;;;;;;1999.90;999.90;;;8.40;99.90;;;;;;5091425;28;20032;-83
2023/12/19 01:05:15;;;;;;;1999.90;999.90;;;8.40;99.90;;;;;;5091414;28;20043;-86
2023/12/19 01:07:40;;;;;;;1999.90;999.90;;;8.40;99.90;;;;;;5073300;28;20403;-83
2023/12/19 01:10:06;;;;;;;1999.90;999.90;;;8.40;99.90;;;;;;5068943;28;20129;-86
2023/12/19 01:12:32;;;;;;;1999.90;999.90;;;8.40;99.90;;;;;;5067575;28;20115;-86
2023/12/19 01:14:58;;;;;;;1999.90;999.90;;;8.40;99.90;;;;;;5085418;28;20540;-83
2023/12/19 01:17:24;;;;;;;1999.90;999.90;;;8.50;99.90;;;;;;5061884;28;20043;-83
2023/12/19 01:19:49;;;;;;;1999.90;999.90;;;8.50;99.90;;;;;;5103782;28;20061;-83
2023/12/19 01:22:15;;;;;;;1999.90;999.90;;;8.50;99.90;;;;;;5074374;28;20035;-83
2023/12/19 01:24:40;;;;;;;1999.90;999.90;;;8.50;99.90;;;;;;5078893;28;20027;-83
2023/12/19 01:27:06;;;;;;;1999.90;999.90;;;8.50;99.90;;;;;;5091083;28;20039;-83
2023/12/19 01:29:31;;;;;;;1999.90;999.90;;;8.60;99.90;;;;;;5064477;28;20419;-84
2023/12/19 01:31:57;;;;;;;1999.90;999.90;;;8.50;99.90;;;;;;5082277;28;20491;-84
2023/12/19 01:34:23;;;;;;;1999.90;999.90;;;8.50;99.90;;;;;;5069558;28;20042;-83
2023/12/19 01:36:49;;;;;;;1999.90;999.90;;;8.50;99.90;;;;;;5066310;28;20477;-83
2023/12/19 01:39:15;;;;;;;1999.90;999.90;;;8.50;99.90;;;;;;5075061;28;20035;-83
2023/12/19 01:41:41;;;;;;;1999.90;999.90;;;8.50;99.90;;;;;;5084648;28;20040;-84
2023/12/19 01:44:16;;;;;;;1999.90;999.90;;;8.50;99.90;;;;;;5082330;28;20396;-83
2023/12/19 01:46:42;;;;;;;1999.90;999.90;;;8.50;99.90;;;;;;5088838;28;20035;-83
2023/12/19 01:49:08;;;;;;;1999.90;999.90;;;8.40;99.90;;;;;;5060875;28;20829;-83
2023/12/19 01:51:33;;;;;;;1999.90;999.90;;;8.40;99.90;;;;;;5080923;28;20072;-83
2023/12/19 01:53:59;;;;;;;1999.90;999.90;;;8.40;99.90;;;;;;5064516;28;20493;-83
2023/12/19 01:56:25;;;;;;;1999.90;999.90;;;8.50;99.90;;;;;;5088013;28;20058;-83
2023/12/19 01:58:51;;;;;;;1999.90;999.90;;;8.50;99.90;;;;;;5066402;28;20461;-83
2023/12/19 02:01:18;;;;;;;1999.90;999.90;;;8.40;99.90;;;;;;5087957;28;20054;-83
2023/12/19 02:03:45;;;;;;;1999.90;999.90;;;8.50;99.90;;;;;;5096870;28;20043;-83
2023/12/19 02:06:12;;;;;;;1999.90;999.90;;;8.50;99.90;;;;;;5065241;28;20043;-83
2023/12/19 02:08:38;;;;;;;1999.90;999.90;;;8.50;99.90;;;;;;5073464;28;20039;-83
2023/12/19 02:11:04;;;;;;;1999.90;999.90;;;8.50;99.90;;;;;;5087466;28;20046;-85
2023/12/19 02:13:30;;;;;;;1999.90;999.90;;;8.50;99.90;;;;;;5072672;28;20066;-82
2023/12/19 02:15:55;;;;;;;1999.90;999.90;;;8.50;99.90;;;;;;5079403;28;20546;-83
2023/12/19 02:18:21;;;;;;;1999.90;999.90;;;8.50;99.90;;;;;;5085357;28;20503;-83
2023/12/19 02:20:48;;;;;;;1999.90;999.90;;;8.50;99.90;;;;;;5060832;28;20039;-85
2023/12/19 02:23:16;;;;;;;1999.90;999.90;;;8.50;99.90;;;;;;5085211;28;20150;-83
2023/12/19 02:25:42;;;;;;;1999.90;999.90;;;8.50;99.90;;;;;;5086022;28;20467;-83
2023/12/19 02:28:08;;;;;;;1999.90;999.90;;;8.50;99.90;;;;;;5067794;28;20165;-83
2023/12/19 02:30:37;;;;;;;1999.90;999.90;;;8.50;99.90;;;;;;5087737;28;20039;-83
2023/12/19 02:33:03;;;;;;;1999.90;999.90;;;8.50;99.90;;;;;;5070975;28;20525;-87
2023/12/19 02:35:29;;;;;;;1999.90;999.90;;;8.50;99.90;;;;;;5099116;28;20054;-85
2023/12/19 02:37:56;;;;;;;1999.90;999.90;;;8.50;99.90;;;;;;5079080;28;20039;-84
2023/12/19 02:40:22;;;;;;;1999.90;999.90;;;8.50;99.90;;;;;;5089309;28;20036;-84
2023/12/19 02:42:47;;;;;;;1999.90;999.90;;;8.50;99.90;;;;;;5083068;28;20046;-83
2023/12/19 02:45:13;;;;;;;1999.90;999.90;;;8.50;99.90;;;;;;5068779;28;20040;-83
2023/12/19 02:47:39;;;;;;;1999.90;999.90;;;8.50;99.90;;;;;;5062017;28;20516;-83
2023/12/19 02:50:05;;;;;;;1999.90;999.90;;;8.50;99.90;;;;;;5069428;28;20043;-83
2023/12/19 02:52:31;;;;;;;1999.90;999.90;;;8.50;99.90;;;;;;5098558;28;20075;-83
2023/12/19 02:54:57;;;;;;;1999.90;999.90;;;8.50;99.90;;;;;;5063929;28;20072;-84
2023/12/19 02:57:22;;;;;;;1999.90;999.90;;;8.50;99.90;;;;;;5085327;28;20047;-83
2023/12/19 02:59:48;;;;;;;1999.90;999.90;;;8.50;99.90;;;;;;5077016;28;20449;-84
2023/12/19 03:02:13;;;;;;;1999.90;999.90;;;8.50;99.90;;;;;;5084559;28;20549;-83
2023/12/19 03:04:39;;;;;;;1999.90;999.90;;;8.40;99.90;;;;;;5080762;28;20032;-83
2023/12/19 03:07:05;;;;;;;1999.90;999.90;;;8.50;99.90;;;;;;5084446;28;20120;-83
2023/12/19 03:09:31;;;;;;;1999.90;999.90;;;8.40;99.90;;;;;;5083507;28;20456;-83
2023/12/19 03:11:59;;;;;;;1999.90;999.90;;;8.50;99.90;;;;;;5081922;28;20126;-83
2023/12/19 03:14:25;;;;;;;1999.90;999.90;;;8.40;99.90;;;;;;5088797;28;20122;-83
2023/12/19 03:16:50;;;;;;;1999.90;999.90;;;8.40;99.90;;;;;;5064681;28;20130;-83
2023/12/19 03:19:16;;;;;;;1999.90;999.90;;;8.40;99.90;;;;;;5091065;28;20491;-83
2023/12/19 03:21:41;;;;;;;1999.90;999.90;;;8.40;99.90;;;;;;5068638;28;20043;-84
2023/12/19 03:24:07;;;;;;;1999.90;999.90;;;8.40;99.90;;;;;;5078395;28;20039;-83
2023/12/19 03:26:33;;;;;;;1999.90;999.90;;;8.40;99.90;;;;;;5073263;28;20108;-83
2023/12/19 03:28:58;;;;;;;1999.90;999.90;;;8.40;99.90;;;;;;5087329;28;20130;-83
2023/12/19 03:31:24;;;;;;;1999.90;999.90;;;8.40;99.90;;;;;;5096311;28;20035;-87
2023/12/19 03:33:50;;;;;;;1999.90;999.90;;;8.40;99.90;;;;;;5079102;28;20488;-82
2023/12/19 03:36:16;;;;;;;1999.90;999.90;;;8.40;99.90;;;;;;5065814;28;20456;-84
2023/12/19 03:38:42;;;;;;;1999.90;999.90;;;8.30;99.90;;;;;;5088869;28;20037;-82
2023/12/19 03:41:07;;;;;;;1999.90;999.90;;;8.30;99.90;;;;;;5105950;28;20040;-83
2023/12/19 03:43:34;;;;;;;1999.90;999.90;;;8.30;99.90;;;;;;5081769;28;20467;-82
2023/12/19 03:46:02;;;;;;;1999.90;999.90;;;8.30;99.90;;;;;;5084829;28;20036;-83
2023/12/19 03:48:28;;;;;;;1999.90;999.90;;;8.30;99.90;;;;;;5103568;28;20090;-84
2023/12/19 03:50:54;;;;;;;1999.90;999.90;;;8.30;99.90;;;;;;5099816;28;20500;-83
2023/12/19 03:53:21;;;;;;;1999.90;999.90;;;8.30;99.90;;;;;;5097857;28;20047;-83
2023/12/19 03:55:47;;;;;;;1999.90;999.90;;;8.30;99.90;;;;;;5094960;28;20522;-83
2023/12/19 03:58:12;;;;;;;1999.90;999.90;;;8.30;99.90;;;;;;5067651;28;20044;-82
2023/12/19 04:00:38;;;;;;;1999.90;999.90;;;8.30;99.90;;;;;;5069075;28;20126;-82
2023/12/19 04:03:04;;;;;;;1999.90;999.90;;;8.30;99.90;;;;;;5070401;28;20537;-82
2023/12/19 04:05:29;;;;;;;1999.90;999.90;;;8.30;99.90;;;;;;5089819;28;20039;-83
2023/12/19 04:07:55;;;;;;;1999.90;999.90;;;8.30;99.90;;;;;;5069456;28;20089;-83
2023/12/19 04:10:21;;;;;;;1999.90;999.90;;;8.30;99.90;;;;;;5107986;28;20079;-83
2023/12/19 04:12:46;;;;;;;1999.90;999.90;;;8.30;99.90;;;;;;5084842;28;20044;-83
2023/12/19 04:15:12;;;;;;;1999.90;999.90;;;8.30;99.90;;;;;;5058824;28;20048;-83
2023/12/19 04:17:38;;;;;;;1999.90;999.90;;;8.30;99.90;;;;;;5097947;28;20502;-83
2023/12/19 04:20:04;;;;;;;1999.90;999.90;;;8.20;99.90;;;;;;5074412;28;20071;-83
2023/12/19 04:22:33;;;;;;;1999.90;999.90;;;8.30;99.90;;;;;;5099986;28;20048;-83
2023/12/19 04:24:59;;;;;;;1999.90;999.90;;;8.30;99.90;;;;;;5063243;28;20478;-83
2023/12/19 04:27:25;;;;;;;1999.90;999.90;;;8.30;99.90;;;;;;5079997;28;20032;-83
2023/12/19 04:29:54;;;;;;;1999.90;999.90;;;8.30;99.90;;;;;;5093432;28;20032;-82
2023/12/19 04:32:20;;;;;;;1999.90;999.90;;;8.30;99.90;;;;;;5090356;28;20122;-83
2023/12/19 04:34:46;;;;;;;1999.90;999.90;;;8.30;99.90;;;;;;5102626;28;20119;-83
2023/12/19 04:37:11;;;;;;;1999.90;999.90;;;8.20;99.90;;;;;;5099208;28;20086;-83
2023/12/19 04:39:37;;;;;;;1999.90;999.90;;;8.30;99.90;;;;;;5091925;28;20119;-83
2023/12/19 04:42:06;;;;;;;1999.90;999.90;;;8.30;99.90;;;;;;5077659;28;20568;-83
2023/12/19 04:44:33;;;;;;;1999.90;999.90;;;8.30;99.90;;;;;;5083244;28;20463;-83
2023/12/19 04:46:59;;;;;;;1999.90;999.90;;;8.30;99.90;;;;;;5107003;28;20134;-83
2023/12/19 04:49:24;;;;;;;1999.90;999.90;;;8.30;99.90;;;;;;5082013;28;20154;-83
2023/12/19 04:51:51;;;;;;;1999.90;999.90;;;8.30;99.90;;;;;;5075416;28;20039;-82
2023/12/19 04:54:17;;;;;;;1999.90;999.90;;;8.30;99.90;;;;;;5107844;28;20039;-83
2023/12/19 04:56:43;;;;;;;1999.90;999.90;;;8.30;99.90;;;;;;5095279;28;20407;-83
2023/12/19 04:59:09;;;;;;;1999.90;999.90;;;8.30;99.90;;;;;;5078394;28;20407;-84
2023/12/19 05:01:36;;;;;;;1999.90;999.90;;;8.30;99.90;;;;;;5074925;28;20032;-83
2023/12/19 05:04:01;;;;;;;1999.90;999.90;;;8.30;99.90;;;;;;5073004;28;20089;-84
2023/12/19 05:06:27;;;;;;;1999.90;999.90;;;8.30;99.90;;;;;;5081839;28;20036;-84
2023/12/19 05:08:52;;;;;;;1999.90;999.90;;;8.30;99.90;;;;;;5057389;28;20040;-83
2023/12/19 05:11:18;;;;;;;1999.90;999.90;;;8.30;99.90;;;;;;5081903;28;20105;-83
2023/12/19 05:13:44;;;;;;;1999.90;999.90;;;8.30;99.90;;;;;;5083100;28;20046;-84
2023/12/19 05:16:17;;;;;;;1999.90;999.90;;;8.30;99.90;;;;;;5069943;28;20495;-84
2023/12/19 05:18:43;;;;;;;1999.90;999.90;;;8.30;99.90;;;;;;5071308;28;20066;-83
2023/12/19 05:21:10;;;;;;;1999.90;999.90;;;8.30;99.90;;;;;;5077639;28;20036;-84
2023/12/19 05:23:36;;;;;;;1999.90;999.90;;;8.30;99.90;;;;;;5080861;28;20042;-85
2023/12/19 05:26:03;;;;;;;1999.90;999.90;;;8.30;99.90;;;;;;5100928;28;20160;-83
2023/12/19 05:28:29;;;;;;;1999.90;999.90;;;8.20;99.90;;;;;;5072491;28;20039;-84
2023/12/19 05:30:56;;;;;;;1999.90;999.90;;;8.40;99.90;;;;;;5077282;28;20123;-84
2023/12/19 05:33:29;;;;;;;1999.90;999.90;;;8.40;99.90;;;;;;5067823;28;20031;-83
2023/12/19 05:35:55;;;;;;;1999.90;999.90;;;8.40;99.90;;;;;;5076293;28;20096;-83
2023/12/19 05:38:21;;;;;;;1999.90;999.90;;;8.40;99.90;;;;;;5060622;28;20046;-84
2023/12/19 05:40:47;;;;;;;1999.90;999.90;;;8.40;99.90;;;;;;5084066;28;20126;-84
2023/12/19 05:43:13;;;;;;;1999.90;999.90;;;8.40;99.90;;;;;;5088980;28;20032;-83
2023/12/19 05:45:40;;;;;;;1999.90;999.90;;;8.40;99.90;;;;;;5065831;28;20036;-83
2023/12/19 05:48:06;;;;;;;1999.90;999.90;;;8.40;99.90;;;;;;5074366;28;20056;-83
2023/12/19 05:50:31;;;;;;;1999.90;999.90;;;8.40;99.90;;;;;;5075786;28;20445;-83
2023/12/19 05:52:57;;;;;;;1999.90;999.90;;;8.40;99.90;;;;;;5083000;28;20097;-83
2023/12/19 05:55:23;;;;;;;1999.90;999.90;;;8.40;99.90;;;;;;5084887;28;20044;-83
2023/12/19 05:57:49;;;;;;;1999.90;999.90;;;8.50;99.90;;;;;;5057674;28;20039;-83
2023/12/19 06:00:15;;;;;;;1999.90;999.90;;;8.50;99.90;;;;;;5061376;28;20476;-83
2023/12/19 06:02:41;;;;;;;1999.90;999.90;;;8.50;99.90;;;;;;5068064;28;20039;-83
2023/12/19 06:05:07;;;;;;;1999.90;999.90;;;8.50;99.90;;;;;;5070591;28;20037;-83
2023/12/19 06:07:41;;;;;;;1999.90;999.90;;;8.50;99.90;;;;;;5081014;28;20124;-83
2023/12/19 06:10:08;;;;;;;;;;;8.50;99.90;;;;;;5081544;28;20486;-83
2023/12/19 06:12:34;;;;;;;1999.90;999.90;;;8.50;99.90;;;;;;5061409;28;19959;-82
2023/12/19 06:15:00;;;;;;;1999.90;999.90;;;8.50;99.90;;;;;;5063309;28;20074;-83
2023/12/19 06:17:26;;;;;;;1999.90;999.90;;;8.50;99.90;;;;;;5068260;28;20040;-82
2023/12/19 06:19:51;;;;;;;1999.90;999.90;;;8.50;99.90;;;;;;5062125;28;20364;-83
2023/12/19 06:22:17;;;;;;;1999.90;999.90;;;8.50;99.90;;;;;;5057786;28;20119;-82
2023/12/19 06:24:42;;;;;;;1999.90;999.90;;;8.40;99.90;;;;;;5079615;28;20450;-82
2023/12/19 06:27:08;;;;;;;1999.90;999.90;;;8.50;99.90;;;;;;5082171;28;20041;-83
2023/12/19 06:29:34;;;;;;;1999.90;999.90;;;8.50;99.90;;;;;;5069633;28;20051;-85
2023/12/19 06:32:00;;;;;;;1999.90;999.90;;;8.50;99.90;;;;;;5069923;28;20048;-83
2023/12/19 06:34:28;;;;;;;1999.90;999.90;;;8.50;99.90;;;;;;5064804;28;20050;-84
2023/12/19 06:36:54;;;;;;;1999.90;999.90;;;8.50;99.90;;;;;;5083362;28;20575;-83
2023/12/19 06:39:20;;;;;;;1999.90;999.90;;;8.50;99.90;;;;;;5063751;28;20111;-83
2023/12/19 06:41:45;;;;;;;1999.90;999.90;;;8.50;99.90;;;;;;5074279;28;20051;-85
2023/12/19 06:44:12;;;;;;;1999.90;999.90;;;8.50;99.90;;;;;;5077167;28;20039;-83
2023/12/19 06:46:38;;;;;;;1999.90;999.90;;;8.50;99.90;;;;;;5078452;28;20051;-83
2023/12/19 06:49:04;;;;;;;1999.90;999.90;;;8.50;99.90;;;;;;5097226;28;20058;-83
2023/12/19 06:51:31;;;;;;;1999.90;999.90;;;8.50;99.90;;;;;;5070726;28;20380;-83
2023/12/19 06:53:57;;;;;;;1999.90;999.90;;;8.50;99.90;;;;;;5078226;28;20054;-83
2023/12/19 06:56:27;;;;;;;1999.90;999.90;;;8.50;99.90;;;;;;5088460;28;20057;-83
2023/12/19 06:58:53;;;;;;;1999.90;999.90;;;8.50;99.90;;;;;;5084065;28;20403;-83
2023/12/19 07:01:19;;;;;;;1999.90;999.90;;;8.50;99.90;;;;;;5095785;28;20036;-82
2023/12/19 07:03:44;;;;;;;1999.90;999.90;;;8.50;99.90;;;;;;5082512;28;20043;-82
2023/12/19 07:06:14;;;;;;;1999.90;999.90;;;8.50;99.90;;;;;;5086574;28;20050;-84
2023/12/19 07:08:40;;;;;;;1999.90;999.90;;;8.50;99.90;;;;;;5105135;28;20043;-83
2023/12/19 07:11:05;;;;;;;1999.90;999.90;;;8.50;99.90;;;;;;5069265;28;20047;-83
2023/12/19 07:13:32;;;;;;;1999.90;999.90;;;8.50;99.90;;;;;;5106535;28;20109;-83
2023/12/19 07:15:58;;;;;;;1999.90;999.90;;;8.60;99.90;;;;;;5087609;28;20048;-83
2023/12/19 07:18:23;;;;;;;1999.90;999.90;;;8.50;99.90;;;;;;5098066;28;20085;-83
2023/12/19 07:20:49;;;;;;;1999.90;999.90;;;8.60;99.90;;;;;;5066606;28;20028;-83
2023/12/19 07:23:15;;;;;;;1999.90;999.90;;;8.60;99.90;;;;;;5082676;28;20114;-82
2023/12/19 07:25:41;;;;;;;1999.90;999.90;;;8.60;99.90;;;;;;5063148;28;20483;-82
2023/12/19 07:28:07;;;;;;;1999.90;999.90;;;8.60;99.90;;;;;;5086719;28;20040;-82
2023/12/19 07:30:32;;;;;;;1999.90;999.90;;;8.60;99.90;;;;;;5097544;28;20039;-82
2023/12/19 07:32:59;;;;;;;1999.90;999.90;;;8.60;99.90;;;;;;5076656;28;20522;-82
2023/12/19 07:35:25;;;;;;;1999.90;999.90;;;8.60;99.90;;;;;;5090991;28;20124;-82
2023/12/19 07:37:51;;;;;;;1999.90;999.90;;;8.60;99.90;;;;;;5084543;28;20128;-82
2023/12/19 07:40:16;;;;;;;1999.90;999.90;;;8.70;99.90;;;;;;5095606;28;20074;-83
2023/12/19 07:42:44;;;;;;;1999.90;999.90;;;8.70;99.90;;;;;;5084608;28;20065;-83
2023/12/19 07:45:13;;;;;;;1999.90;999.90;;;8.60;99.90;;;;;;5054519;28;20111;-79
2023/12/19 07:47:39;;;;;;;1999.90;999.90;;;8.60;99.90;;;;;;5065271;28;20138;-80
2023/12/19 07:50:10;;;;;;;1999.90;999.90;;;8.60;99.90;;;;;;5072664;28;20046;-80
2023/12/19 07:52:36;;;;;;;1999.90;999.90;;;8.60;99.90;;;;;;5055435;28;20028;-80
2023/12/19 07:55:04;;;;;;;1999.90;999.90;;;8.60;99.90;;;;;;5078789;28;20036;-80
2023/12/19 07:57:29;;;;;;;1999.90;999.90;;;8.60;99.90;;;;;;5060955;28;20047;-80
2023/12/19 07:59:55;;;;;;;1999.90;999.90;;;8.60;99.90;;;;;;5064198;28;20039;-80
2023/12/19 08:02:21;;;;;;;1999.90;999.90;;;8.60;99.90;;;;;;5103094;28;20057;-80
2023/12/19 08:04:47;;;;;;;1999.90;999.90;;;8.60;99.90;;;;;;5085758;28;20055;-80
2023/12/19 08:07:12;;;;;;;1999.90;999.90;;;8.60;99.90;;;;;;5063886;28;20047;-80
2023/12/19 08:09:38;;;;;;;1999.90;999.90;;;8.60;99.90;;;;;;5073975;28;20404;-80
2023/12/19 08:12:04;;;;;;;1999.90;999.90;;;8.60;99.90;;;;;;5065252;28;20040;-80
2023/12/19 08:14:29;;;;;;;1999.90;999.90;;;8.60;99.90;;;;;;5092841;28;20074;-80
2023/12/19 08:16:55;;;;;;;1999.90;999.90;;;8.60;99.90;;;;;;5093133;28;20039;-80
2023/12/19 08:19:20;;;;;;;1999.90;999.90;;;8.60;99.90;;;;;;5087179;28;20396;-81
2023/12/19 08:21:48;;;;;;;1999.90;999.90;;;8.70;99.90;;;;;;5082265;28;20032;-80
2023/12/19 08:24:14;;;;;;;1999.90;999.90;;;8.70;99.90;;;;;;5091830;28;20157;-81
2023/12/19 08:26:39;;;;;;;1999.90;999.90;;;8.70;99.90;;;;;;5080456;28;20082;-80
2023/12/19 08:29:05;;;;;;;1999.90;999.90;;;8.70;99.90;;;;;;5064415;28;20043;-80
2023/12/19 08:31:30;;;;;;;1999.90;999.90;;;8.70;99.90;;;;;;5068290;28;20036;-80
2023/12/19 08:33:56;;;;;;;1999.90;999.90;;;8.80;99.90;;;;;;5086382;28;20086;-81
2023/12/19 08:36:22;;;;;;;1999.90;999.90;;;8.80;99.90;;;;;;5107867;28;20042;-80
2023/12/19 08:38:47;;;;;;;1999.90;999.90;;;8.80;99.90;;;;;;5065017;28;20031;-81
2023/12/19 08:41:13;;;;;;;1999.90;999.90;;;8.80;99.90;;;;;;5088852;28;20027;-81
2023/12/19 08:43:38;;;;;;;1999.90;999.90;;;8.80;99.90;;;;;;5109681;28;20114;-80
2023/12/19 08:46:04;;;;;;;1999.90;999.90;;;8.80;99.90;;;;;;5091613;28;20445;-81
2023/12/19 08:48:29;;;;;;;1999.90;999.90;;;8.90;99.90;;;;;;5089549;28;20055;-81
2023/12/19 08:50:55;;;;;;;1999.90;999.90;;;8.80;99.90;;;;;;5075950;28;20541;-81
2023/12/19 08:53:21;;;;;;;1999.90;999.90;;;8.90;99.90;;;;;;5072679;28;20089;-81
2023/12/19 08:55:47;;;;;;;1999.90;999.90;;;8.90;99.90;;;;;;5075389;28;20100;-80
2023/12/19 08:58:13;;;;;;;1999.90;999.90;;;8.90;99.90;;;;;;5073634;28;20515;-80
2023/12/19 09:00:38;;;;;;;1999.90;999.90;;;8.90;99.90;;;;;;5082825;28;20044;-80
2023/12/19 09:03:05;;;;;;;1999.90;999.90;;;9.00;99.90;;;;;;5065417;28;20035;-80
2023/12/19 09:05:31;;;;;;;1999.90;999.90;;;9.00;99.90;;;;;;5064689;28;20341;-80
2023/12/19 09:07:56;;;;;;;1999.90;999.90;;;9.00;99.90;;;;;;5084578;28;20039;-80
2023/12/19 09:10:22;;;;;;;1999.90;999.90;;;9.00;99.90;;;;;;5085605;28;20198;-80
2023/12/19 09:12:48;;;;;;;1999.90;999.90;;;9.00;99.90;;;;;;5064865;28;20048;-80
2023/12/19 09:15:13;;;;;;;1999.90;999.90;;;9.00;99.90;;;;;;5066594;28;20506;-80
2023/12/19 09:17:39;;;;;;;1999.90;999.90;;;9.10;99.90;;;;;;5073534;28;20070;-80
2023/12/19 09:20:07;;;;;;;1999.90;999.90;;;9.10;99.90;;;;;;5070443;28;20042;-80
2023/12/19 09:22:33;;;;;;;1999.90;999.90;;;9.20;99.90;;;;;;5069548;28;20068;-80
2023/12/19 09:24:59;;;;;;;1999.90;999.90;;;9.20;99.90;;;;;;5089395;28;20437;-83
2023/12/19 09:27:27;;;;;;;1999.90;999.90;;;9.30;99.90;;;;;;5062301;28;20036;-82
2023/12/19 09:29:53;;;;;;;1999.90;999.90;;;9.30;99.90;;;;;;5078842;28;20038;-83
2023/12/19 09:32:19;;;;;;;1999.90;999.90;;;9.30;99.90;;;;;;5081925;28;20040;-83
2023/12/19 09:34:45;;;;;;;1999.90;999.90;;;9.30;99.90;;;;;;5076654;28;20060;-83
2023/12/19 09:37:10;;;;;;;1999.90;999.90;;;9.40;99.90;;;;;;5063806;28;20109;-83
2023/12/19 09:39:36;;;;;;;1999.90;999.90;;;9.40;99.90;;;;;;5077129;28;20044;-83
2023/12/19 09:42:02;;;;;;;1999.90;999.90;;;9.40;99.90;;;;;;5082621;28;20043;-83
2023/12/19 09:44:28;;;;;;;1999.90;999.90;;;9.40;99.90;;;;;;5065197;28;20027;-83
2023/12/19 09:46:54;;;;;;;1999.90;999.90;;;9.40;99.90;;;;;;5077516;28;20184;-83
2023/12/19 09:49:25;;;;;;;1999.90;999.90;;;9.40;99.90;;;;;;5069786;28;20058;-83
2023/12/19 09:51:53;;;;;;;1999.90;999.90;;;9.40;99.90;;;;;;5071458;28;20523;-82
2023/12/19 09:54:21;;;;;;;1999.90;999.90;;;9.40;99.90;;;;;;5078242;28;20047;-83
2023/12/19 09:56:47;;;;;;;1999.90;999.90;;;9.40;99.90;;;;;;5062498;28;20044;-83
2023/12/19 09:59:16;;;;;;;1999.90;999.90;;;9.40;99.90;;;;;;5102168;28;20213;-82
2023/12/19 10:01:42;;;;;;;1999.90;999.90;;;9.40;99.90;;;;;;5080249;28;20085;-82
2023/12/19 10:04:13;;;;;;;1999.90;999.90;;;9.40;99.90;;;;;;5084145;28;20295;-82
2023/12/19 10:06:40;;;;;;;1999.90;999.90;;;9.50;99.90;;;;;;5099856;28;20488;-83
2023/12/19 10:09:06;;;;;;;1999.90;999.90;;;9.40;99.90;;;;;;5086021;28;20055;-82
2023/12/19 10:11:32;;;;;;;1999.90;999.90;;;9.40;99.90;;;;;;5087943;28;20036;-82
2023/12/19 10:14:11;;;;;;;1999.90;999.90;;;9.40;99.90;;;;;;5070526;28;20073;-82
2023/12/19 10:16:40;;;;;;;1999.90;999.90;;;9.50;99.90;;;;;;5075266;28;20093;-82
2023/12/19 10:19:11;;;;;;;1999.90;999.90;;;9.50;99.90;;;;;;5071805;28;20082;-83
2023/12/19 10:21:36;;;;;;;1999.90;999.90;;;9.50;99.90;;;;;;5086076;28;20040;-82
2023/12/19 10:24:11;;;;;;;1999.90;999.90;;;9.50;99.90;;;;;;5083742;28;20487;-83
2023/12/19 10:26:38;;;;;;;1999.90;999.90;;;9.50;99.90;;;;;;5069803;28;20039;-83
2023/12/19 10:29:04;;;;;;;1999.90;999.90;;;9.60;99.90;;;;;;5054561;28;20084;-84
2023/12/19 10:31:30;;;;;;;1999.90;999.90;;;9.70;99.90;;;;;;5065487;28;20572;-83
2023/12/19 10:33:56;;;;;;;1999.90;999.90;;;9.70;99.90;;;;;;5069818;28;20396;-83
2023/12/19 10:36:23;;;;;;;1999.90;999.90;;;9.70;99.90;;;;;;5081206;28;20043;-83
2023/12/19 10:38:49;;;;;;;1999.90;999.90;;;9.80;99.90;;;;;;5069191;28;20491;-83
2023/12/19 10:41:29;;;;;;;1999.90;999.90;;;9.80;99.90;;;;;;5084923;28;20067;-83
2023/12/19 10:43:57;;;;;;;1999.90;999.90;;;9.80;99.90;;;;;;5067714;28;20442;-83
2023/12/19 10:46:25;;;;;;;1999.90;999.90;;;9.80;99.90;;;;;;5064048;28;20135;-83
2023/12/19 10:49:02;;;;;;;1999.90;999.90;;;9.90;99.90;;;;;;5085868;28;20051;-83
2023/12/19 10:51:33;;;;;;;1999.90;999.90;;;9.90;99.90;;;;;;5098790;28;20048;-83
2023/12/19 10:54:09;;;;;;;1999.90;999.90;;;9.80;99.90;;;;;;5084684;28;20039;-83
2023/12/19 10:56:50;;;;;;;1999.90;999.90;;;9.90;99.90;;;;;;5067900;28;20040;-83
2023/12/19 10:59:32;;;;;;;1999.90;999.90;;;9.90;99.90;;;;;;5098412;28;20074;-83
2023/12/19 11:02:03;;;;;;;1999.90;999.90;;;9.90;99.90;;;;;;5083948;28;20111;-83
2023/12/19 11:04:32;;;;;;;1999.90;999.90;;;9.90;99.90;;;;;;5062434;28;20543;-83
2023/12/19 11:07:02;;;;;;;1999.90;999.90;;;9.90;99.90;;;;;;5057263;28;20032;-83
2023/12/19 11:09:36;;;;;;;1999.90;999.90;;;10.00;99.90;;;;;;5062663;28;20054;-83
2023/12/19 11:12:02;;;;;;;1999.90;999.90;;;10.00;99.90;;;;;;5088519;28;20051;-83
2023/12/19 11:14:27;;;;;;;1999.90;999.90;;;10.00;99.90;;;;;;5059568;28;20122;-83
2023/12/19 11:17:07;;;;;;;1999.90;999.90;;;10.10;99.90;;;;;;5070147;28;20048;-83
2023/12/19 11:19:41;;;;;;;1999.90;999.90;;;10.00;99.90;;;;;;5067647;28;20115;-83
2023/12/19 11:22:25;;;;;;;;;;;10.10;99.90;;;;;;5066586;28;20050;-83
2023/12/19 11:25:22;;;;;;;1999.90;999.90;;;10.10;99.90;;;;;;5088723;28;20314;-83
2023/12/19 11:27:54;;;;;;;1999.90;999.90;;;10.10;99.90;;;;;;5082746;28;20128;-83
2023/12/19 11:30:37;;;;;;;1999.90;999.90;;;10.10;99.90;;;;;;5063691;28;20054;-83
2023/12/19 11:33:30;;;;;;;1999.90;999.90;;;10.10;99.90;;;;;;5062685;28;23484;-83
2023/12/19 11:36:11;;;;;;;1999.90;999.90;;;10.00;99.90;;;;;;5073190;28;20078;-83
2023/12/19 11:38:36;;;;;;;1999.90;999.90;;;10.10;99.90;;;;;;5064484;28;20412;-83
2023/12/19 11:41:02;;;;;;;1999.90;999.90;;;10.10;99.90;;;;;;5053687;28;20043;-83
2023/12/19 11:43:31;;;;;;;1999.90;999.90;;;10.10;99.90;;;;;;5077749;28;20047;-83
2023/12/19 11:46:15;;;;;;;1999.90;999.90;;;10.10;99.90;;;;;;5076182;28;20054;-83
2023/12/19 11:48:51;;;;;;;1999.90;999.90;;;10.10;99.90;;;;;;5069474;28;20063;-83
2023/12/19 11:51:42;;;;;;;1999.90;999.90;;;10.10;99.90;;;;;;5078921;28;20067;-83
2023/12/19 11:54:10;;;;;;;1999.90;999.90;;;10.10;99.90;;;;;;5076677;28;20051;-83
2023/12/19 11:56:38;;;;;;;1999.90;999.90;;;10.10;99.90;;;;;;5083770;28;20070;-82
2023/12/19 11:59:04;;;;;;;1999.90;999.90;;;10.10;99.90;;;;;;5065740;28;20052;-83
2023/12/19 12:01:47;;;;;;;1999.90;999.90;;;10.10;99.90;;;;;;5078313;28;20147;-83
2023/12/19 12:04:13;;;;;;;1999.90;999.90;;;10.10;99.90;;;;;;5080541;28;20040;-82
2023/12/19 12:06:39;;;;;;;1999.90;999.90;;;10.10;99.90;;;;;;5076137;28;20032;-83
2023/12/19 12:09:05;;;;;;;1999.90;999.90;;;10.10;99.90;;;;;;5076784;28;20589;-83